createdAt,value
2023-05-22T00:00:25.537Z,97.34
2023-05-22T00:02:32.925Z,97.14
2023-05-22T00:04:42.614Z,96.71
2023-05-22T00:06:49.380Z,96.85
2023-05-22T00:09:00.385Z,97.14
2023-05-22T00:11:06.568Z,97.11
2023-05-22T00:13:11.950Z,97.38
2023-05-22T00:15:18.028Z,97.08
2023-05-22T00:17:27.932Z,97.21
2023-05-22T00:19:34.118Z,97.26
2023-05-22T00:21:41.866Z,97.66
2023-05-22T00:23:48.981Z,97.16
2023-05-22T00:25:57.386Z,97.58
2023-05-22T00:28:02.519Z,97.18
2023-05-22T00:30:10.620Z,96.96
2023-05-22T00:32:15.695Z,97.71
2023-05-22T00:34:31.898Z,97.34
2023-05-22T00:36:40.313Z,97.32
2023-05-22T00:38:51.026Z,97.77
2023-05-22T00:41:05.716Z,97.92
2023-05-22T00:43:11.336Z,97.40
2023-05-22T00:45:17.812Z,97.58
2023-05-22T00:47:25.551Z,98.53
2023-05-22T00:49:34.163Z,97.93
2023-05-22T00:51:41.894Z,98.08
2023-05-22T00:53:58.124Z,97.68
2023-05-22T00:56:05.510Z,97.86
2023-05-22T00:58:21.095Z,97.95
2023-05-22T01:00:29.922Z,98.10
2023-05-22T01:02:37.943Z,98.27
2023-05-22T01:04:50.410Z,98.53
2023-05-22T01:06:59.457Z,98.24
2023-05-22T01:09:08.255Z,98.09
2023-05-22T01:11:18.215Z,98.13
2023-05-22T01:13:32.986Z,97.90
2023-05-22T01:15:47.233Z,98.31
2023-05-22T01:18:06.382Z,98.42
2023-05-22T01:20:27.996Z,98.28
2023-05-22T01:22:53.103Z,98.74
2023-05-22T01:25:27.833Z,98.98
2023-05-22T01:27:53.961Z,99.23
2023-05-22T01:30:15.970Z,99.24
2023-05-22T01:32:29.320Z,99.30
2023-05-22T01:34:39.581Z,98.84
2023-05-22T01:36:48.005Z,98.92
2023-05-22T01:39:01.189Z,99.26
2023-05-22T01:41:07.699Z,99.48
2023-05-22T01:43:22.222Z,99.57
2023-05-22T01:45:27.618Z,99.31
2023-05-22T01:47:35.973Z,99.40
2023-05-22T01:49:41.405Z,99.27
2023-05-22T01:51:55.694Z,99.04
2023-05-22T01:54:06.625Z,99.35
2023-05-22T01:56:19.938Z,99.54
2023-05-22T01:58:31.820Z,99.83
2023-05-22T02:00:38.615Z,99.33
2023-05-22T02:02:51.442Z,99.40
2023-05-22T02:05:05.936Z,99.03
2023-05-22T02:07:23.942Z,99.04
2023-05-22T02:09:33.453Z,99.84
2023-05-22T02:11:41.029Z,99.22
2023-05-22T02:13:50.582Z,99.44
2023-05-22T02:15:56.106Z,99.84
2023-05-22T02:18:13.176Z,99.73
2023-05-22T02:20:25.036Z,99.23
2023-05-22T02:22:31.545Z,99.61
2023-05-22T02:24:38.112Z,99.14
2023-05-22T02:26:43.274Z,99.08
2023-05-22T02:28:48.632Z,99.20
2023-05-22T02:30:58.317Z,99.30
2023-05-22T02:33:09.613Z,99.07
2023-05-22T02:35:15.019Z,99.25
2023-05-22T02:37:20.933Z,99.19
2023-05-22T02:39:28.122Z,98.87
2023-05-22T02:41:34.407Z,99.34
2023-05-22T02:43:43.655Z,99.09
2023-05-22T02:45:48.730Z,99.14
2023-05-22T02:47:57.190Z,99.30
2023-05-22T02:50:04.721Z,99.03
2023-05-22T02:52:10.169Z,99.38
2023-05-22T02:54:16.482Z,99.12
2023-05-22T02:56:30.955Z,99.29
2023-05-22T02:58:38.685Z,99.16
2023-05-22T03:00:46.259Z,99.66
2023-05-22T03:02:51.727Z,99.28
2023-05-22T03:04:59.250Z,98.99
2023-05-22T03:07:09.945Z,99.12
2023-05-22T03:09:19.666Z,98.95
2023-05-22T03:11:30.481Z,99.05
2023-05-22T03:13:35.993Z,98.83
2023-05-22T03:15:41.756Z,98.94
2023-05-22T03:17:47.027Z,98.91
2023-05-22T03:19:53.272Z,99.30
2023-05-22T03:21:58.508Z,98.87
2023-05-22T03:24:06.411Z,99.26
2023-05-22T03:26:11.945Z,99.06
2023-05-22T03:28:20.475Z,98.92
2023-05-22T03:30:27.763Z,98.58
2023-05-22T03:32:38.493Z,99.09
2023-05-22T03:34:47.200Z,98.83
2023-05-22T03:36:52.242Z,98.88
2023-05-22T03:38:59.031Z,98.73
2023-05-22T03:41:09.519Z,98.96
2023-05-22T03:43:14.559Z,99.22
2023-05-22T03:45:22.313Z,99.02
2023-05-22T03:47:27.525Z,99.14
2023-05-22T03:49:33.605Z,99.04
2023-05-22T03:51:46.092Z,99.15
2023-05-22T03:53:51.748Z,98.80
2023-05-22T03:55:58.231Z,98.72
2023-05-22T03:58:09.911Z,98.80
2023-05-22T04:00:20.078Z,98.74
2023-05-22T04:02:35.814Z,99.01
2023-05-22T04:04:46.834Z,98.57
2023-05-22T04:06:54.615Z,98.75
2023-05-22T04:09:00.560Z,98.72
2023-05-22T04:11:06.111Z,98.95
2023-05-22T04:13:13.678Z,98.74
2023-05-22T04:15:29.088Z,98.77
2023-05-22T04:17:37.923Z,98.78
2023-05-22T04:19:58.161Z,98.80
2023-05-22T04:22:03.368Z,98.80
2023-05-22T04:24:11.510Z,98.72
2023-05-22T04:26:21.160Z,98.50
2023-05-22T04:28:30.594Z,98.56
2023-05-22T04:30:40.756Z,98.33
2023-05-22T04:32:48.360Z,98.29
2023-05-22T04:34:58.728Z,98.65
2023-05-22T04:37:03.859Z,98.42
2023-05-22T04:39:11.746Z,98.08
2023-05-22T04:41:22.580Z,98.06
2023-05-22T04:43:37.210Z,97.83
2023-05-22T04:45:42.616Z,98.04
2023-05-22T04:47:47.748Z,97.94
2023-05-22T04:49:56.460Z,97.86
2023-05-22T04:52:07.434Z,97.56
2023-05-22T04:54:13.974Z,97.65
2023-05-22T04:56:31.778Z,97.49
2023-05-22T04:58:50.125Z,96.98
2023-05-22T05:00:58.478Z,96.99
2023-05-22T05:03:03.756Z,97.03
2023-05-22T05:05:10.015Z,96.88
2023-05-22T05:07:20.321Z,96.96
2023-05-22T05:09:25.275Z,96.33
2023-05-22T05:11:35.320Z,95.94
2023-05-22T05:13:43.237Z,96.13
2023-05-22T05:15:54.688Z,95.74
2023-05-22T05:18:02.173Z,95.93
2023-05-22T05:20:11.104Z,95.12
2023-05-22T05:22:19.156Z,94.80
2023-05-22T05:24:27.714Z,95.32
2023-05-22T05:26:34.946Z,95.25
2023-05-22T05:28:43.004Z,95.33
2023-05-22T05:30:51.772Z,95.70
2023-05-22T05:32:59.831Z,95.60
2023-05-22T05:35:07.929Z,94.90
2023-05-22T05:37:13.077Z,95.52
2023-05-22T05:39:19.703Z,95.25
2023-05-22T05:41:30.518Z,95.47
2023-05-22T05:43:40.481Z,95.55
2023-05-22T05:45:53.880Z,95.46
2023-05-22T05:47:58.910Z,95.33
2023-05-22T05:50:06.586Z,94.71
2023-05-22T05:52:15.055Z,95.10
2023-05-22T05:54:22.212Z,94.61
2023-05-22T05:56:29.093Z,94.96
2023-05-22T05:58:35.645Z,94.81
2023-05-22T06:00:51.855Z,94.41
2023-05-22T06:03:02.527Z,93.85
2023-05-22T06:05:10.186Z,93.32
2023-05-22T06:07:19.344Z,92.94
2023-05-22T06:09:28.718Z,92.06
2023-05-22T06:11:34.278Z,92.38
2023-05-22T06:13:39.703Z,91.07
2023-05-22T06:15:45.314Z,89.50
2023-05-22T06:17:51.389Z,89.37
2023-05-22T06:20:00.538Z,89.30
2023-05-22T06:22:05.621Z,89.36
2023-05-22T06:24:11.308Z,89.56
2023-05-22T06:26:18.188Z,89.58
2023-05-22T06:28:29.139Z,90.27
2023-05-22T06:30:40.149Z,90.29
2023-05-22T06:32:47.003Z,90.45
2023-05-22T06:34:52.850Z,90.13
2023-05-22T06:37:01.557Z,90.24
2023-05-22T06:39:08.843Z,90.11
2023-05-22T06:41:14.426Z,90.34
2023-05-22T06:43:24.534Z,89.93
2023-05-22T06:45:31.771Z,90.46
2023-05-22T06:47:40.247Z,89.99
2023-05-22T06:49:45.619Z,90.26
2023-05-22T06:52:11.442Z,89.89
2023-05-22T06:54:24.211Z,89.76
2023-05-22T06:56:32.438Z,89.29
2023-05-22T06:58:39.903Z,88.46
2023-05-22T07:00:45.440Z,88.90
2023-05-22T07:03:02.693Z,88.38
2023-05-22T07:05:09.433Z,87.31
2023-05-22T07:07:14.922Z,87.15
2023-05-22T07:09:25.442Z,85.92
2023-05-22T07:11:33.130Z,84.92
2023-05-22T07:13:39.181Z,85.13
2023-05-22T07:15:46.553Z,85.23
2023-05-22T07:17:53.073Z,85.05
2023-05-22T07:19:58.056Z,84.29
2023-05-22T07:22:05.284Z,83.70
2023-05-22T07:24:13.260Z,83.17
2023-05-22T07:26:27.949Z,82.63
2023-05-22T07:28:39.110Z,82.89
2023-05-22T07:30:52.006Z,81.58
2023-05-22T07:33:00.014Z,81.37
2023-05-22T07:35:05.275Z,79.43
2023-05-22T07:37:17.153Z,79.77
2023-05-22T07:39:24.591Z,78.21
2023-05-22T07:41:35.093Z,76.33
2023-05-22T07:43:41.233Z,75.40
2023-05-22T07:45:50.806Z,74.00
2023-05-22T07:47:56.599Z,72.90
2023-05-22T07:50:04.537Z,74.47
2023-05-22T07:52:10.613Z,73.22
2023-05-22T07:54:19.446Z,71.98
2023-05-22T07:56:26.196Z,70.64
2023-05-22T07:58:34.888Z,69.70
2023-05-22T08:00:40.065Z,70.83
2023-05-22T08:02:45.698Z,68.89
2023-05-22T08:04:51.935Z,70.44
2023-05-22T08:06:58.190Z,70.01
2023-05-22T08:09:03.635Z,68.55
2023-05-22T08:11:09.011Z,68.17
2023-05-22T08:13:15.903Z,66.98
2023-05-22T08:15:26.344Z,66.94
2023-05-22T08:17:31.331Z,66.06
2023-05-22T08:19:36.860Z,65.69
2023-05-22T08:21:42.000Z,67.61
2023-05-22T08:23:46.946Z,64.62
2023-05-22T08:25:52.767Z,65.03
2023-05-22T08:27:57.816Z,64.16
2023-05-22T08:30:04.027Z,62.86
2023-05-22T08:32:11.820Z,62.08
2023-05-22T08:34:17.617Z,62.24
2023-05-22T08:36:23.557Z,63.34
2023-05-22T08:38:28.680Z,62.43
2023-05-22T08:40:39.696Z,61.14
2023-05-22T08:42:45.862Z,58.85
2023-05-22T08:44:51.950Z,58.93
2023-05-22T08:47:00.052Z,60.74
2023-05-22T08:49:09.716Z,59.29
2023-05-22T08:51:21.550Z,57.43
2023-05-22T08:53:31.118Z,58.34
2023-05-22T08:55:39.972Z,58.14
2023-05-22T08:57:47.023Z,57.69
2023-05-22T08:59:56.067Z,57.45
2023-05-22T09:02:01.988Z,56.90
2023-05-22T09:04:10.804Z,56.41
2023-05-22T09:06:20.116Z,56.08
2023-05-22T09:08:28.822Z,56.09
2023-05-22T09:10:35.566Z,55.30
2023-05-22T09:13:00.804Z,56.56
2023-05-22T09:15:13.993Z,55.08
2023-05-22T09:17:21.173Z,56.45
2023-05-22T09:19:28.866Z,55.07
2023-05-22T09:21:35.645Z,55.10
2023-05-22T09:23:43.984Z,55.37
2023-05-22T09:25:50.928Z,56.19
2023-05-22T09:27:56.806Z,55.93
2023-05-22T09:30:02.513Z,55.47
2023-05-22T09:32:20.331Z,55.40
2023-05-22T09:34:34.069Z,55.85
2023-05-22T09:36:40.424Z,56.48
2023-05-22T09:38:45.380Z,53.99
2023-05-22T09:40:53.007Z,54.60
2023-05-22T09:42:58.313Z,55.09
2023-05-22T09:45:09.786Z,52.84
2023-05-22T09:47:14.938Z,53.34
2023-05-22T09:49:22.632Z,52.90
2023-05-22T09:51:32.153Z,52.65
2023-05-22T09:53:38.141Z,52.65
2023-05-22T09:55:43.927Z,51.92
2023-05-22T09:57:50.931Z,52.20
2023-05-22T09:59:58.652Z,51.03
2023-05-22T10:02:05.036Z,50.08
2023-05-22T10:04:15.469Z,51.05
2023-05-22T10:06:23.473Z,50.76
2023-05-22T10:08:39.691Z,51.53
2023-05-22T10:10:48.588Z,51.44
2023-05-22T10:13:00.803Z,52.00
2023-05-22T10:15:07.697Z,51.61
2023-05-22T10:17:13.400Z,50.42
2023-05-22T10:19:19.404Z,50.78
2023-05-22T10:21:26.073Z,52.18
2023-05-22T10:23:34.443Z,51.01
2023-05-22T10:25:41.650Z,50.10
2023-05-22T10:27:49.817Z,48.81
2023-05-22T10:29:59.518Z,49.29
2023-05-22T10:32:12.420Z,50.32
2023-05-22T10:34:24.523Z,51.60
2023-05-22T10:36:44.316Z,50.45
2023-05-22T10:39:13.865Z,52.27
2023-05-22T10:41:23.259Z,52.04
2023-05-22T10:43:32.970Z,50.01
2023-05-22T10:45:39.844Z,48.81
2023-05-22T10:47:48.580Z,49.40
2023-05-22T10:50:06.779Z,49.54
2023-05-22T10:52:13.218Z,49.77
2023-05-22T10:54:40.001Z,50.86
2023-05-22T10:56:45.727Z,50.67
2023-05-22T10:59:02.959Z,50.55
2023-05-22T11:01:21.254Z,52.62
2023-05-22T11:03:26.482Z,51.62
2023-05-22T11:05:40.078Z,50.22
2023-05-22T11:07:45.167Z,52.21
2023-05-22T11:09:56.188Z,53.06
2023-05-22T11:12:20.737Z,51.64
2023-05-22T11:14:29.292Z,53.54
2023-05-22T11:16:41.896Z,51.76
2023-05-22T11:18:47.322Z,51.66
2023-05-22T11:20:52.679Z,50.36
2023-05-22T11:23:01.152Z,50.56
2023-05-22T11:25:13.996Z,49.79
2023-05-22T11:27:21.985Z,48.99
2023-05-22T11:29:27.600Z,49.65
2023-05-22T11:31:33.241Z,49.51
2023-05-22T11:33:38.394Z,49.50
2023-05-22T11:35:46.227Z,50.08
2023-05-22T11:37:53.408Z,48.67
2023-05-22T11:40:01.251Z,49.96
2023-05-22T11:42:11.622Z,49.86
2023-05-22T11:44:17.625Z,48.92
2023-05-22T11:46:23.230Z,48.30
2023-05-22T11:48:28.496Z,50.77
2023-05-22T11:50:42.503Z,52.41
2023-05-22T11:52:49.626Z,51.31
2023-05-22T11:54:57.331Z,52.05
2023-05-22T11:57:02.441Z,50.77
2023-05-22T11:59:10.222Z,50.38
2023-05-22T12:01:15.172Z,49.41
2023-05-22T12:03:20.929Z,49.13
2023-05-22T12:05:28.729Z,47.92
2023-05-22T12:07:34.709Z,51.42
2023-05-22T12:09:48.204Z,52.24
2023-05-22T12:12:00.746Z,53.08
2023-05-22T12:14:06.599Z,53.25
2023-05-22T12:16:29.031Z,54.00
2023-05-22T12:18:39.314Z,53.53
2023-05-22T12:20:46.852Z,54.04
2023-05-22T12:22:52.401Z,53.09
2023-05-22T12:24:57.545Z,53.20
2023-05-22T12:27:02.469Z,52.83
2023-05-22T12:29:07.642Z,53.40
2023-05-22T12:31:12.571Z,54.21
2023-05-22T12:33:20.772Z,54.88
2023-05-22T12:35:26.573Z,55.80
2023-05-22T12:37:32.192Z,56.44
2023-05-22T12:39:38.040Z,56.82
2023-05-22T12:41:43.087Z,58.18
2023-05-22T12:43:48.643Z,58.61
2023-05-22T12:45:58.297Z,58.69
2023-05-22T12:48:04.755Z,58.18
2023-05-22T12:50:12.818Z,58.10
2023-05-22T12:52:21.116Z,59.14
2023-05-22T12:54:26.269Z,58.88
2023-05-22T12:56:31.926Z,58.27
2023-05-22T12:58:37.024Z,58.62
2023-05-22T13:00:42.336Z,58.10
2023-05-22T13:02:48.231Z,57.92
2023-05-22T13:04:55.279Z,57.30
2023-05-22T13:07:03.277Z,57.08
2023-05-22T13:09:08.354Z,58.21
2023-05-22T13:11:14.938Z,57.88
2023-05-22T13:13:19.837Z,57.87
2023-05-22T13:15:24.734Z,56.66
2023-05-22T13:17:30.628Z,57.20
2023-05-22T13:19:35.843Z,57.73
2023-05-22T13:21:43.544Z,57.52
2023-05-22T13:23:51.939Z,57.69
2023-05-22T13:25:57.180Z,57.09
2023-05-22T13:28:03.080Z,57.69
2023-05-22T13:30:09.649Z,56.49
2023-05-22T13:32:17.001Z,57.21
2023-05-22T13:34:22.638Z,57.21
2023-05-22T13:36:27.884Z,56.81
2023-05-22T13:38:33.218Z,56.34
2023-05-22T13:40:43.263Z,56.58
2023-05-22T13:42:48.635Z,57.07
2023-05-22T13:44:56.490Z,57.43
2023-05-22T13:47:01.533Z,55.12
2023-05-22T13:49:06.764Z,55.15
2023-05-22T13:51:12.095Z,56.49
2023-05-22T13:53:32.415Z,57.06
2023-05-22T13:55:40.664Z,56.74
2023-05-22T13:57:48.626Z,57.53
2023-05-22T13:59:56.291Z,58.72
2023-05-22T14:02:01.390Z,58.38
2023-05-22T14:04:06.655Z,57.76
2023-05-22T14:06:11.917Z,58.67
2023-05-22T14:08:17.559Z,58.32
2023-05-22T14:10:23.410Z,59.12
2023-05-22T14:12:28.852Z,61.05
2023-05-22T14:14:36.943Z,60.03
2023-05-22T14:16:42.343Z,59.44
2023-05-22T14:18:47.972Z,59.86
2023-05-22T14:20:58.507Z,59.72
2023-05-22T14:23:03.610Z,59.68
2023-05-22T14:25:09.689Z,59.60
2023-05-22T14:27:14.702Z,60.26
2023-05-22T14:29:19.817Z,61.40
2023-05-22T14:31:29.967Z,61.59
2023-05-22T14:33:36.073Z,61.05
2023-05-22T14:35:41.418Z,60.56
2023-05-22T14:37:47.967Z,60.56
2023-05-22T14:39:52.933Z,60.89
2023-05-22T14:42:07.156Z,61.08
2023-05-22T14:44:12.379Z,60.66
2023-05-22T14:46:17.834Z,59.48
2023-05-22T14:48:26.952Z,60.49
2023-05-22T14:50:32.141Z,59.87
2023-05-22T14:52:40.313Z,59.48
2023-05-22T14:54:45.750Z,59.38
2023-05-22T14:56:51.483Z,58.99
2023-05-22T14:58:56.581Z,58.80
2023-05-22T15:01:01.661Z,58.63
2023-05-22T15:03:07.181Z,59.22
2023-05-22T15:05:15.209Z,58.08
2023-05-22T15:07:24.367Z,58.43
2023-05-22T15:09:32.709Z,57.72
2023-05-22T15:11:41.228Z,57.49
2023-05-22T15:13:46.840Z,57.00
2023-05-22T15:15:53.932Z,57.44
2023-05-22T15:18:02.842Z,58.17
2023-05-22T15:20:09.635Z,58.14
2023-05-22T15:22:19.790Z,58.32
2023-05-22T15:24:25.279Z,59.40
2023-05-22T15:26:33.216Z,58.95
2023-05-22T15:28:38.178Z,59.58
2023-05-22T15:30:43.938Z,60.59
2023-05-22T15:32:52.092Z,61.52
2023-05-22T15:34:57.114Z,62.00
2023-05-22T15:37:02.231Z,62.50
2023-05-22T15:39:09.891Z,62.39
2023-05-22T15:41:14.938Z,61.79
2023-05-22T15:43:22.716Z,60.24
2023-05-22T15:45:28.860Z,61.59
2023-05-22T15:47:34.075Z,59.12
2023-05-22T15:49:40.751Z,59.31
2023-05-22T15:51:46.019Z,58.95
2023-05-22T15:53:51.978Z,58.20
2023-05-22T15:55:59.593Z,57.50
2023-05-22T15:58:08.022Z,56.76
2023-05-22T16:00:15.237Z,57.24
2023-05-22T16:02:23.793Z,56.47
2023-05-22T16:04:28.974Z,56.00
2023-05-22T16:06:33.924Z,55.91
2023-05-22T16:08:39.083Z,57.15
2023-05-22T16:10:47.211Z,57.67
2023-05-22T16:15:03.275Z,57.32
2023-05-22T16:17:09.643Z,57.51
2023-05-22T16:19:14.873Z,57.94
2023-05-22T16:21:19.872Z,57.86
2023-05-22T16:23:25.098Z,58.14
2023-05-22T16:25:33.012Z,58.89
2023-05-22T16:27:38.136Z,58.65
2023-05-22T16:29:45.792Z,59.82
2023-05-22T16:31:52.346Z,60.01
2023-05-22T16:33:57.734Z,60.86
2023-05-22T16:36:02.777Z,60.47
2023-05-22T16:38:11.951Z,60.55
2023-05-22T16:40:22.503Z,61.43
2023-05-22T16:42:27.733Z,62.93
2023-05-22T16:44:34.879Z,63.14
2023-05-22T16:46:42.414Z,62.98
2023-05-22T16:48:49.787Z,64.75
2023-05-22T16:50:54.939Z,65.08
2023-05-22T16:53:02.456Z,64.94
2023-05-22T16:55:08.434Z,66.06
2023-05-22T16:57:13.385Z,66.04
2023-05-22T16:59:19.750Z,65.98
2023-05-22T17:01:25.121Z,67.35
2023-05-22T17:03:34.491Z,67.95
2023-05-22T17:05:40.255Z,67.09
2023-05-22T17:07:45.786Z,66.87
2023-05-22T17:09:51.850Z,67.00
2023-05-22T17:11:57.110Z,67.90
2023-05-22T17:14:02.237Z,68.20
2023-05-22T17:16:10.264Z,67.97
2023-05-22T17:18:18.119Z,69.18
2023-05-22T17:20:26.973Z,70.25
2023-05-22T17:22:32.254Z,70.86
2023-05-22T17:24:37.321Z,71.34
2023-05-22T17:26:42.936Z,70.42
2023-05-22T17:28:48.773Z,70.63
2023-05-22T17:30:58.976Z,70.47
2023-05-22T17:33:10.320Z,71.36
2023-05-22T17:35:16.110Z,72.25
2023-05-22T17:37:26.491Z,72.17
2023-05-22T17:39:32.012Z,72.61
2023-05-22T17:41:37.758Z,73.06
2023-05-22T17:43:42.756Z,73.62
2023-05-22T17:45:50.996Z,74.33
2023-05-22T17:50:49.841Z,74.36
2023-05-22T17:52:59.644Z,74.48
2023-05-22T17:55:04.729Z,74.88
2023-05-22T17:57:12.467Z,75.47
2023-05-22T17:59:19.755Z,75.93
2023-05-22T18:01:24.720Z,76.81
2023-05-22T18:03:30.339Z,76.19
2023-05-22T18:05:35.984Z,76.94
2023-05-22T18:07:41.443Z,77.50
2023-05-22T18:09:52.194Z,77.92
2023-05-22T18:12:02.656Z,77.93
2023-05-22T18:14:07.799Z,78.22
2023-05-22T18:16:13.081Z,77.50
2023-05-22T18:18:20.745Z,77.77
2023-05-22T18:20:26.021Z,77.94
2023-05-22T18:22:31.519Z,77.65
2023-05-22T18:24:36.843Z,77.80
2023-05-22T18:26:44.559Z,77.85
2023-05-22T18:28:51.890Z,77.41
2023-05-22T18:30:58.429Z,76.87
2023-05-22T18:33:04.044Z,76.17
2023-05-22T18:35:09.700Z,76.58
2023-05-22T18:37:14.735Z,76.30
2023-05-22T18:39:22.372Z,76.87
2023-05-22T18:41:27.561Z,76.89
2023-05-22T18:43:35.417Z,77.07
2023-05-22T18:45:43.494Z,77.57
2023-05-22T18:47:48.774Z,77.68
2023-05-22T18:49:56.524Z,78.39
2023-05-22T18:52:02.055Z,78.58
2023-05-22T18:54:07.155Z,78.16
2023-05-22T18:56:12.105Z,78.64
2023-05-22T18:58:21.350Z,79.36
2023-05-22T19:00:29.055Z,79.77
2023-05-22T19:02:34.188Z,79.90
2023-05-22T19:04:39.432Z,79.67
2023-05-22T19:06:44.517Z,80.29
2023-05-22T19:08:52.430Z,79.51
2023-05-22T19:11:02.170Z,80.26
2023-05-22T19:13:07.215Z,80.77
2023-05-22T19:15:17.295Z,81.16
2023-05-22T19:17:27.612Z,81.12
2023-05-22T19:19:36.945Z,81.49
2023-05-22T19:21:45.484Z,82.18
2023-05-22T19:23:51.637Z,82.05
2023-05-22T19:26:01.430Z,81.88
2023-05-22T19:28:07.470Z,82.45
2023-05-22T19:30:15.361Z,82.85
2023-05-22T19:32:22.202Z,83.49
2023-05-22T19:34:31.120Z,84.22
2023-05-22T19:36:40.684Z,84.85
2023-05-22T19:38:56.352Z,85.63
2023-05-22T19:41:16.245Z,86.64
2023-05-22T19:43:23.934Z,86.62
2023-05-22T19:45:29.277Z,86.47
2023-05-22T19:47:34.453Z,86.74
2023-05-22T19:49:42.697Z,87.00
2023-05-22T19:51:51.010Z,86.85
2023-05-22T19:53:56.248Z,87.60
2023-05-22T19:56:02.306Z,87.91
2023-05-22T19:58:07.842Z,88.63
2023-05-22T20:00:14.205Z,89.38
2023-05-22T20:02:19.361Z,89.78
2023-05-22T20:04:24.472Z,91.06
2023-05-22T20:06:33.884Z,91.63
2023-05-22T20:08:39.462Z,91.38
2023-05-22T20:10:44.974Z,91.58
2023-05-22T20:12:50.188Z,91.58
2023-05-22T20:14:57.279Z,91.39
2023-05-22T20:17:03.276Z,92.07
2023-05-22T20:19:09.460Z,92.36
2023-05-22T20:21:17.147Z,92.21
2023-05-22T20:23:25.301Z,92.60
2023-05-22T20:25:30.697Z,93.22
2023-05-22T20:27:36.111Z,92.74
2023-05-22T20:29:41.508Z,93.02
2023-05-22T20:31:52.000Z,93.19
2023-05-22T20:33:59.397Z,93.11
2023-05-22T20:36:04.733Z,93.05
2023-05-22T20:38:14.594Z,93.26
2023-05-22T20:40:29.955Z,93.06
2023-05-22T20:42:36.784Z,93.48
2023-05-22T20:44:42.369Z,93.90
2023-05-22T20:46:47.656Z,93.90
2023-05-22T20:48:58.079Z,93.43
2023-05-22T20:51:03.049Z,93.67
2023-05-22T20:53:08.666Z,93.53
2023-05-22T20:55:13.644Z,93.39
2023-05-22T20:57:24.753Z,93.23
2023-05-22T20:59:39.728Z,93.38
2023-05-22T21:01:46.139Z,92.67
2023-05-22T21:03:56.888Z,92.78
2023-05-22T21:06:05.116Z,92.91
2023-05-22T21:08:20.466Z,92.88
2023-05-22T21:10:28.362Z,92.18
2023-05-22T21:12:40.887Z,92.60
2023-05-22T21:14:55.171Z,92.27
2023-05-22T21:17:08.775Z,92.10
2023-05-22T21:19:17.735Z,92.28
2023-05-22T21:21:41.993Z,92.30
2023-05-22T21:23:48.900Z,92.35
2023-05-22T21:26:03.222Z,92.16
2023-05-22T21:28:12.851Z,91.93
2023-05-22T21:30:25.875Z,92.00
2023-05-22T21:32:36.405Z,91.97
2023-05-22T21:34:45.636Z,92.02
2023-05-22T21:36:52.742Z,91.77
2023-05-22T21:39:00.520Z,91.88
2023-05-22T21:41:05.653Z,92.06
2023-05-22T21:43:13.986Z,91.98
2023-05-22T21:45:19.736Z,91.90
2023-05-22T21:47:31.914Z,91.78
2023-05-22T21:49:39.464Z,91.52
2023-05-22T21:51:44.792Z,91.93
2023-05-22T21:53:50.327Z,91.74
2023-05-22T21:55:57.397Z,91.80
2023-05-22T21:58:02.382Z,92.09
2023-05-22T22:00:11.606Z,91.90
2023-05-22T22:02:17.596Z,91.91
2023-05-22T22:04:25.872Z,92.14
2023-05-22T22:06:31.260Z,92.21
2023-05-22T22:08:37.739Z,92.22
2023-05-22T22:10:45.795Z,92.17
2023-05-22T22:12:52.243Z,92.03
2023-05-22T22:14:57.413Z,91.98
2023-05-22T22:17:06.064Z,91.61
2023-05-22T22:19:11.870Z,92.56
2023-05-22T22:21:18.152Z,93.00
2023-05-22T22:23:24.596Z,93.17
2023-05-22T22:25:34.388Z,93.77
2023-05-22T22:27:39.960Z,94.80
2023-05-22T22:29:45.507Z,94.46
2023-05-22T22:31:57.133Z,95.10
2023-05-22T22:34:11.666Z,94.97
2023-05-22T22:36:18.145Z,95.59
2023-05-22T22:38:24.723Z,95.42
2023-05-22T22:40:32.906Z,94.98
2023-05-22T22:42:38.651Z,95.33
2023-05-22T22:44:44.389Z,95.05
2023-05-22T22:46:50.890Z,94.84
2023-05-22T22:49:05.651Z,94.89
2023-05-22T22:51:10.886Z,95.13
2023-05-22T22:53:17.528Z,95.64
2023-05-22T22:55:28.192Z,95.71
2023-05-22T22:57:33.647Z,95.97
2023-05-22T22:59:40.606Z,96.10
2023-05-22T23:01:46.133Z,96.23
2023-05-22T23:03:52.706Z,96.08
2023-05-22T23:06:00.876Z,96.17
2023-05-22T23:08:05.925Z,96.37
2023-05-22T23:10:14.681Z,95.71
2023-05-22T23:12:21.782Z,95.62
2023-05-22T23:14:30.484Z,96.08
2023-05-22T23:16:38.156Z,96.14
2023-05-22T23:18:43.557Z,96.44
2023-05-22T23:20:49.486Z,96.63
2023-05-22T23:22:57.432Z,97.00
2023-05-22T23:25:02.527Z,96.48
2023-05-22T23:27:07.971Z,96.00
2023-05-22T23:29:13.499Z,95.71
2023-05-22T23:31:19.184Z,96.77
2023-05-22T23:33:24.593Z,96.46
2023-05-22T23:35:35.467Z,97.08
2023-05-22T23:37:42.170Z,96.63
2023-05-22T23:39:51.183Z,96.75
2023-05-22T23:41:56.707Z,96.73
2023-05-22T23:44:02.237Z,97.17
2023-05-22T23:46:07.852Z,96.88
2023-05-22T23:48:12.828Z,96.75
2023-05-22T23:50:20.823Z,96.87
2023-05-22T23:52:34.853Z,96.79
2023-05-22T23:54:39.953Z,96.58
2023-05-22T23:56:51.177Z,97.08
2023-05-22T23:58:56.265Z,97.12
